createdAt,value
2018-03-26T00:00:56.817Z,100737.16
2018-03-26T00:03:25.227Z,100740.51
2018-03-26T00:05:53.710Z,100737.59
2018-03-26T00:08:22.295Z,100738.88
2018-03-26T00:10:50.977Z,100733.88
2018-03-26T00:13:21.008Z,100731.38
2018-03-26T00:15:50.148Z,100735.20
2018-03-26T00:18:18.515Z,100731.48
2018-03-26T00:20:47.223Z,100733.27
2018-03-26T00:23:15.670Z,100734.72
2018-03-26T00:25:44.757Z,100735.64
2018-03-26T00:28:13.479Z,100735.70
2018-03-26T00:30:42.123Z,100737.81
2018-03-26T00:33:11.630Z,100734.49
2018-03-26T00:35:42.108Z,100737.01
2018-03-26T00:38:12.095Z,100727.37
2018-03-26T00:40:41.896Z,100733.67
2018-03-26T00:43:10.811Z,100735.84
2018-03-26T00:45:40.302Z,100734.23
2018-03-26T00:48:09.738Z,100729.98
2018-03-26T00:50:38.253Z,100725.86
2018-03-26T00:53:08.164Z,100732.98
2018-03-26T00:55:37.566Z,100726.73
2018-03-26T00:58:06.410Z,100732.13
2018-03-26T01:00:34.776Z,100734.16
2018-03-26T01:03:10.045Z,100738.72
2018-03-26T01:05:38.493Z,100730.41
2018-03-26T01:08:07.193Z,100740.04
2018-03-26T01:10:36.480Z,100728.71
2018-03-26T01:13:05.361Z,100734.09
2018-03-26T01:15:34.468Z,100742.48
2018-03-26T01:18:04.392Z,100740.45
2018-03-26T01:20:35.156Z,100739.55
2018-03-26T01:23:03.639Z,100741.21
2018-03-26T01:25:32.279Z,100742.05
2018-03-26T01:28:00.677Z,100743.30
2018-03-26T01:30:31.346Z,100741.14
2018-03-26T01:33:00.151Z,100739.34
2018-03-26T01:35:29.070Z,100742.21
2018-03-26T01:37:57.622Z,100743.87
2018-03-26T01:40:26.159Z,100752.26
2018-03-26T01:42:55.030Z,100734.67
2018-03-26T01:45:24.228Z,100736.67
2018-03-26T01:47:52.589Z,100741.57
2018-03-26T01:50:21.341Z,100734.29
2018-03-26T01:52:50.830Z,100734.20
2018-03-26T01:55:20.141Z,100735.07
2018-03-26T01:57:49.174Z,100739.06
2018-03-26T02:00:17.876Z,100745.20
2018-03-26T02:02:46.613Z,100741.34
2018-03-26T02:05:14.969Z,100738.95
2018-03-26T02:07:44.362Z,100740.16
2018-03-26T02:10:12.821Z,100737.93
2018-03-26T02:12:41.824Z,100745.33
2018-03-26T02:15:10.295Z,100741.98
2018-03-26T02:17:38.703Z,100743.74
2018-03-26T02:20:07.357Z,100746.43
2018-03-26T02:22:37.096Z,100745.25
2018-03-26T02:25:05.465Z,100754.89
2018-03-26T02:27:34.924Z,100744.42
2018-03-26T02:30:03.802Z,100748.97
2018-03-26T02:32:33.798Z,100750.51
2018-03-26T02:35:02.293Z,100753.30
2018-03-26T02:37:32.388Z,100756.98
2018-03-26T02:40:01.016Z,100754.42
2018-03-26T02:42:29.641Z,100757.83
2018-03-26T02:45:00.086Z,100756.23
2018-03-26T02:47:30.140Z,100758.27
2018-03-26T02:49:58.739Z,100753.23
2018-03-26T02:52:27.162Z,100754.05
2018-03-26T02:54:56.362Z,100755.27
2018-03-26T02:57:25.008Z,100756.94
2018-03-26T02:59:54.001Z,100759.91
2018-03-26T03:02:23.211Z,100761.25
2018-03-26T03:04:51.898Z,100758.81
2018-03-26T03:07:20.692Z,100760.50
2018-03-26T03:09:49.872Z,100765.56
2018-03-26T03:12:18.228Z,100758.06
2018-03-26T03:14:47.141Z,100761.83
2018-03-26T03:17:16.086Z,100757.62
2018-03-26T03:19:44.445Z,100752.61
2018-03-26T03:22:13.005Z,100752.23
2018-03-26T03:24:41.548Z,100753.85
2018-03-26T03:27:09.922Z,100754.22
2018-03-26T03:29:38.279Z,100754.22
2018-03-26T03:32:07.262Z,100758.87
2018-03-26T03:34:35.948Z,100758.40
2018-03-26T03:37:04.618Z,100760.13
2018-03-26T03:39:33.165Z,100759.31
2018-03-26T03:42:01.668Z,100759.37
2018-03-26T03:44:30.020Z,100767.80
2018-03-26T03:46:59.877Z,100766.19
2018-03-26T03:49:28.962Z,100768.30
2018-03-26T03:51:57.995Z,100767.83
2018-03-26T03:54:26.784Z,100766.91
2018-03-26T03:56:55.601Z,100766.42
2018-03-26T03:59:24.084Z,100763.92
2018-03-26T04:01:52.875Z,100762.30
2018-03-26T04:04:21.436Z,100760.16
2018-03-26T04:06:49.908Z,100767.20
2018-03-26T04:09:18.701Z,100766.72
2018-03-26T04:11:47.059Z,100767.95
2018-03-26T04:14:16.646Z,100766.23
2018-03-26T04:16:45.643Z,100765.80
2018-03-26T04:19:14.281Z,100766.14
2018-03-26T04:21:44.523Z,100762.33
2018-03-26T04:24:12.965Z,100763.58
2018-03-26T04:26:41.325Z,100765.26
2018-03-26T04:29:09.693Z,100764.05
2018-03-26T04:31:39.236Z,100767.83
2018-03-26T04:34:08.103Z,100771.23
2018-03-26T04:36:36.971Z,100773.36
2018-03-26T04:39:06.113Z,100765.04
2018-03-26T04:41:34.531Z,100767.97
2018-03-26T04:44:02.910Z,100766.63
2018-03-26T04:46:31.262Z,100771.11
2018-03-26T04:48:59.638Z,100769.52
2018-03-26T04:51:29.071Z,100768.87
2018-03-26T04:53:58.397Z,100772.78
2018-03-26T04:56:27.682Z,100766.96
2018-03-26T04:58:56.550Z,100774.52
2018-03-26T05:01:26.101Z,100774.10
2018-03-26T05:03:54.728Z,100769.89
2018-03-26T05:06:23.520Z,100775.64
2018-03-26T05:08:51.908Z,100775.92
2018-03-26T05:11:20.811Z,100775.67
2018-03-26T05:13:49.198Z,100768.66
2018-03-26T05:16:19.235Z,100767.38
2018-03-26T05:18:49.182Z,100773.45
2018-03-26T05:21:17.632Z,100776.69
2018-03-26T05:23:46.425Z,100779.13
2018-03-26T05:26:15.071Z,100774.91
2018-03-26T05:28:44.039Z,100776.08
2018-03-26T05:31:13.289Z,100779.63
2018-03-26T05:33:42.529Z,100777.28
2018-03-26T05:36:11.466Z,100784.22
2018-03-26T05:38:40.698Z,100781.60
2018-03-26T05:41:10.250Z,100780.28
2018-03-26T05:43:39.588Z,100787.05
2018-03-26T05:46:09.900Z,100787.06
2018-03-26T05:48:38.804Z,100781.17
2018-03-26T05:51:07.200Z,100781.53
2018-03-26T05:53:35.976Z,100779.77
2018-03-26T05:56:05.918Z,100783.11
2018-03-26T05:58:34.859Z,100783.52
2018-03-26T06:01:04.707Z,100781.84
2018-03-26T06:03:34.219Z,100781.77
2018-03-26T06:06:03.471Z,100786.74
2018-03-26T06:08:33.039Z,100788.06
2018-03-26T06:11:02.234Z,100785.56
2018-03-26T06:13:32.955Z,100784.27
2018-03-26T06:16:02.909Z,100790.91
2018-03-26T06:18:31.710Z,100788.23
2018-03-26T06:21:01.388Z,100789.75
2018-03-26T06:23:30.085Z,100789.99
2018-03-26T06:25:59.771Z,100795.38
2018-03-26T06:28:28.617Z,100795.77
2018-03-26T06:30:59.076Z,100793.08
2018-03-26T06:33:28.183Z,100798.41
2018-03-26T06:35:57.778Z,100795.80
2018-03-26T06:38:32.424Z,100795.34
2018-03-26T06:41:01.067Z,100791.91
2018-03-26T06:43:29.489Z,100799.91
2018-03-26T06:45:58.161Z,100797.55
2018-03-26T06:48:26.653Z,100800.31
2018-03-26T06:50:55.155Z,100799.57
2018-03-26T06:53:23.529Z,100801.67
2018-03-26T06:55:51.884Z,100801.59
2018-03-26T06:58:20.734Z,100804.05
2018-03-26T07:00:49.185Z,100810.77
2018-03-26T07:03:18.389Z,100809.91
2018-03-26T07:05:48.182Z,100808.56
2018-03-26T07:08:17.631Z,100813.86
2018-03-26T07:10:46.177Z,100817.00
2018-03-26T07:13:15.347Z,100817.58
2018-03-26T07:15:43.884Z,100823.13
2018-03-26T07:18:12.278Z,100816.22
2018-03-26T07:20:40.629Z,100816.89
2018-03-26T07:23:09.386Z,100814.31
2018-03-26T07:25:38.429Z,100814.70
2018-03-26T07:28:06.938Z,100819.67
2018-03-26T07:30:35.342Z,100817.45
2018-03-26T07:33:04.464Z,100817.70
2018-03-26T07:35:32.817Z,100822.55
2018-03-26T07:38:02.044Z,100830.84
2018-03-26T07:40:30.437Z,100835.08
2018-03-26T07:42:59.048Z,100841.48
2018-03-26T07:45:27.895Z,100844.94
2018-03-26T07:47:56.286Z,100842.42
2018-03-26T07:50:24.689Z,100841.97
2018-03-26T07:52:53.904Z,100844.00
2018-03-26T07:55:22.325Z,100848.13
2018-03-26T07:57:52.115Z,100854.00
2018-03-26T08:00:20.722Z,100855.25
2018-03-26T08:02:50.059Z,100858.19
2018-03-26T08:05:18.514Z,100867.48
2018-03-26T08:07:47.830Z,100868.88
2018-03-26T08:10:16.689Z,100867.72
2018-03-26T08:12:45.114Z,100868.23
2018-03-26T08:15:13.802Z,100872.13
2018-03-26T08:17:42.708Z,100872.54
2018-03-26T08:20:11.280Z,100878.04
2018-03-26T08:22:39.639Z,100882.31
2018-03-26T08:25:08.275Z,100883.25
2018-03-26T08:27:36.746Z,100881.97
2018-03-26T08:30:05.463Z,100887.02
2018-03-26T08:32:34.682Z,100877.34
2018-03-26T08:35:03.625Z,100890.24
2018-03-26T08:37:32.681Z,100886.04
2018-03-26T08:40:01.035Z,100895.25
2018-03-26T08:42:29.457Z,100889.27
2018-03-26T08:44:58.395Z,100893.80
2018-03-26T08:47:27.947Z,100894.58
2018-03-26T08:49:56.394Z,100892.96
2018-03-26T08:52:25.583Z,100894.16
2018-03-26T08:54:54.590Z,100896.09
2018-03-26T08:57:23.446Z,100892.59
2018-03-26T08:59:51.865Z,100890.20
2018-03-26T09:02:21.335Z,100893.14
2018-03-26T09:04:49.760Z,100891.63
2018-03-26T09:07:18.671Z,100892.39
2018-03-26T09:09:47.139Z,100896.50
2018-03-26T09:12:15.526Z,100890.80
2018-03-26T09:14:43.872Z,100896.34
2018-03-26T09:17:12.224Z,100885.69
2018-03-26T09:19:40.585Z,100886.53
2018-03-26T09:22:09.253Z,100887.90
2018-03-26T09:24:38.575Z,100885.72
2018-03-26T09:27:07.368Z,100892.08
2018-03-26T09:29:36.528Z,100887.66
2018-03-26T09:32:05.141Z,100889.28
2018-03-26T09:34:33.890Z,100893.73
2018-03-26T09:37:03.271Z,100894.40
2018-03-26T09:39:31.814Z,100900.17
2018-03-26T09:42:00.606Z,100896.86
2018-03-26T09:44:29.018Z,100901.00
2018-03-26T09:46:57.541Z,100904.19
2018-03-26T09:49:26.282Z,100904.76
2018-03-26T09:51:55.841Z,100901.52
2018-03-26T09:54:24.449Z,100904.36
2018-03-26T09:56:53.559Z,100904.47
2018-03-26T09:59:22.698Z,100903.27
2018-03-26T10:01:57.199Z,100908.37
2018-03-26T10:04:26.544Z,100914.63
2018-03-26T10:06:56.078Z,100909.89
2018-03-26T10:09:24.791Z,100906.47
2018-03-26T10:11:53.343Z,100901.84
2018-03-26T10:14:23.004Z,100902.46
2018-03-26T10:16:51.357Z,100904.79
2018-03-26T10:19:20.102Z,100901.31
2018-03-26T10:21:49.160Z,100900.06
2018-03-26T10:24:17.522Z,100906.93
2018-03-26T10:26:46.654Z,100906.66
2018-03-26T10:29:15.339Z,100900.77
2018-03-26T10:31:44.020Z,100903.33
2018-03-26T10:34:12.513Z,100913.86
2018-03-26T10:36:40.981Z,100909.80
2018-03-26T10:39:09.342Z,100916.59
2018-03-26T10:41:37.833Z,100911.09
2018-03-26T10:44:06.907Z,100913.86
2018-03-26T10:46:35.467Z,100915.49
2018-03-26T10:49:04.707Z,100920.13
2018-03-26T10:51:33.308Z,100915.48
2018-03-26T10:54:02.089Z,100912.83
2018-03-26T10:56:31.320Z,100918.26
2018-03-26T10:58:59.676Z,100920.71
2018-03-26T11:01:29.378Z,100923.27
2018-03-26T11:03:57.871Z,100919.98
2018-03-26T11:06:26.362Z,100924.33
2018-03-26T11:08:54.721Z,100928.58
2018-03-26T11:11:23.627Z,100933.34
2018-03-26T11:13:52.045Z,100944.31
2018-03-26T11:16:20.896Z,100937.63
2018-03-26T11:18:50.206Z,100940.31
2018-03-26T11:21:19.032Z,100942.98
2018-03-26T11:23:47.514Z,100950.42
2018-03-26T11:26:16.317Z,100946.89
2018-03-26T11:28:44.678Z,100957.58
2018-03-26T11:31:14.229Z,100957.39
2018-03-26T11:33:42.668Z,100961.39
2018-03-26T11:36:11.627Z,100964.27
2018-03-26T11:38:40.848Z,100961.41
2018-03-26T11:41:09.617Z,100964.01
2018-03-26T11:43:38.187Z,100963.09
2018-03-26T11:46:06.766Z,100965.95
2018-03-26T11:48:35.376Z,100965.20
2018-03-26T11:51:03.746Z,100965.81
2018-03-26T11:53:33.031Z,100967.03
2018-03-26T11:56:01.570Z,100966.67
2018-03-26T11:58:30.049Z,100971.47
2018-03-26T12:00:58.737Z,100964.03
2018-03-26T12:03:28.399Z,100969.15
2018-03-26T12:05:57.328Z,100966.91
2018-03-26T12:08:26.157Z,100968.91
2018-03-26T12:10:54.545Z,100974.80
2018-03-26T12:13:23.384Z,100977.88
2018-03-26T12:15:52.025Z,100970.83
2018-03-26T12:18:20.722Z,100971.17
2018-03-26T12:21:00.244Z,100978.98
2018-03-26T12:23:40.470Z,100981.22
2018-03-26T12:26:08.899Z,100981.48
2018-03-26T12:28:49.048Z,100986.48
2018-03-26T12:31:17.885Z,100986.78
2018-03-26T12:33:58.149Z,100982.72
2018-03-26T12:36:27.448Z,100987.16
2018-03-26T12:38:56.841Z,100985.48
2018-03-26T12:41:27.706Z,100991.66
2018-03-26T12:43:57.458Z,100999.16
2018-03-26T12:46:37.785Z,101003.20
2018-03-26T12:49:07.716Z,101000.53
2018-03-26T12:51:47.942Z,101010.86
2018-03-26T12:54:16.545Z,101017.75
2018-03-26T12:56:45.314Z,101029.91
2018-03-26T12:59:13.910Z,101024.21
2018-03-26T13:01:55.290Z,101029.84
2018-03-26T13:04:23.697Z,101033.97
2018-03-26T13:06:53.088Z,101036.15
2018-03-26T13:09:23.221Z,101030.95
2018-03-26T13:11:54.071Z,101041.45
2018-03-26T13:14:24.541Z,101045.67
2018-03-26T13:16:54.166Z,101055.22
2018-03-26T13:19:23.380Z,101051.34
2018-03-26T13:21:51.883Z,101059.97
2018-03-26T13:24:20.545Z,101076.93
2018-03-26T13:26:50.125Z,101069.92
2018-03-26T13:29:18.522Z,101080.36
2018-03-26T13:31:46.878Z,101078.44
2018-03-26T13:34:15.269Z,101086.98
2018-03-26T13:36:43.636Z,101086.52
2018-03-26T13:39:12.516Z,101090.11
2018-03-26T13:41:41.183Z,101097.20
2018-03-26T13:44:11.162Z,101099.09
2018-03-26T13:46:39.541Z,101104.36
2018-03-26T13:49:08.909Z,101113.06
2018-03-26T13:51:37.337Z,101113.02
2018-03-26T13:54:06.067Z,101118.03
2018-03-26T13:56:34.513Z,101116.56
2018-03-26T13:59:02.853Z,101117.59
2018-03-26T14:01:31.438Z,101124.65
2018-03-26T14:04:00.722Z,101129.53
2018-03-26T14:06:29.103Z,101129.73
2018-03-26T14:09:10.661Z,101130.08
2018-03-26T14:14:53.998Z,101137.58
2018-03-26T14:17:34.566Z,101140.50
2018-03-26T14:20:03.246Z,101141.21
2018-03-26T14:22:31.686Z,101140.84
2018-03-26T14:25:00.401Z,101148.19
2018-03-26T14:27:29.980Z,101148.34
2018-03-26T14:29:59.422Z,101156.41
2018-03-26T14:32:27.853Z,101151.87
2018-03-26T14:35:08.236Z,101150.57
2018-03-26T14:37:36.851Z,101156.48
2018-03-26T14:40:05.441Z,101156.48
2018-03-26T14:42:33.809Z,101159.95
2018-03-26T14:45:02.747Z,101154.00
2018-03-26T14:47:32.134Z,101159.55
2018-03-26T14:50:00.655Z,101165.47
2018-03-26T14:52:29.021Z,101157.56
2018-03-26T14:54:57.689Z,101166.86
2018-03-26T14:57:27.350Z,101163.92
2018-03-26T14:59:56.153Z,101161.83
2018-03-26T15:02:24.638Z,101162.67
2018-03-26T15:04:53.062Z,101159.17
2018-03-26T15:07:21.412Z,101158.75
2018-03-26T15:09:50.119Z,101161.66
2018-03-26T15:12:19.561Z,101163.33
2018-03-26T15:14:47.989Z,101161.27
2018-03-26T15:17:16.359Z,101151.67
2018-03-26T15:19:45.417Z,101160.08
2018-03-26T15:22:13.766Z,101161.75
2018-03-26T15:24:42.431Z,101159.69
2018-03-26T15:27:11.282Z,101170.73
2018-03-26T15:29:39.658Z,101170.33
2018-03-26T15:32:08.135Z,101173.83
2018-03-26T15:34:36.485Z,101173.91
2018-03-26T15:37:05.144Z,101172.30
2018-03-26T15:39:33.917Z,101169.41
2018-03-26T15:42:02.648Z,101169.82
2018-03-26T15:44:31.016Z,101169.76
2018-03-26T15:46:59.367Z,101170.67
2018-03-26T15:49:28.000Z,101176.27
2018-03-26T15:51:56.354Z,101175.50
2018-03-26T15:54:25.052Z,101178.44
2018-03-26T15:56:53.414Z,101183.97
2018-03-26T15:59:22.017Z,101182.37
2018-03-26T16:01:50.375Z,101187.11
2018-03-26T16:04:18.757Z,101190.13
2018-03-26T16:06:47.124Z,101193.01
2018-03-26T16:09:15.489Z,101188.30
2018-03-26T16:11:43.861Z,101198.38
2018-03-26T16:14:13.727Z,101196.66
2018-03-26T16:16:42.077Z,101189.80
2018-03-26T16:19:10.426Z,101199.05
2018-03-26T16:21:38.915Z,101196.73
2018-03-26T16:24:07.786Z,101203.55
2018-03-26T16:26:36.560Z,101206.09
2018-03-26T16:29:04.907Z,101202.86
2018-03-26T16:31:33.589Z,101212.99
2018-03-26T16:34:02.383Z,101216.42
2018-03-26T16:36:30.745Z,101212.33
2018-03-26T16:38:59.630Z,101224.11
2018-03-26T16:41:40.733Z,101223.34
2018-03-26T16:44:09.741Z,101224.28
2018-03-26T16:46:38.097Z,101230.16
2018-03-26T16:49:06.523Z,101229.67
2018-03-26T16:51:36.132Z,101235.99
2018-03-26T16:54:04.533Z,101237.83
2018-03-26T16:56:32.895Z,101237.09
2018-03-26T16:59:01.255Z,101236.27
2018-03-26T17:01:29.850Z,101237.95
2018-03-26T17:03:58.219Z,101236.27
2018-03-26T17:06:26.582Z,101242.13
2018-03-26T17:08:54.937Z,101243.39
2018-03-26T17:11:23.300Z,101248.43
2018-03-26T17:13:51.662Z,101248.48
2018-03-26T17:16:20.080Z,101254.37
2018-03-26T17:18:48.734Z,101251.81
2018-03-26T17:21:17.113Z,101253.84
2018-03-26T17:23:45.469Z,101255.09
2018-03-26T17:26:14.173Z,101258.42
2018-03-26T17:28:42.526Z,101264.72
2018-03-26T17:31:10.931Z,101257.67
2018-03-26T17:33:39.285Z,101261.52
2018-03-26T17:36:07.698Z,101266.19
2018-03-26T17:38:36.458Z,101269.64
2018-03-26T17:41:05.092Z,101269.28
2018-03-26T17:43:34.385Z,101274.36
2018-03-26T17:46:02.739Z,101274.83
2018-03-26T17:48:31.458Z,101281.19
2018-03-26T17:51:00.138Z,101280.91
2018-03-26T17:53:29.040Z,101278.06
2018-03-26T17:55:57.410Z,101283.52
2018-03-26T17:58:25.812Z,101281.89
2018-03-26T18:00:55.078Z,101288.18
2018-03-26T18:03:23.772Z,101282.69
2018-03-26T18:05:52.534Z,101286.83
2018-03-26T18:08:20.887Z,101284.69
2018-03-26T18:10:49.546Z,101288.00
2018-03-26T18:13:18.702Z,101290.92
2018-03-26T18:15:48.495Z,101290.47
2018-03-26T18:18:17.268Z,101289.16
2018-03-26T18:20:46.599Z,101289.09
2018-03-26T18:23:15.078Z,101291.52
2018-03-26T18:25:43.526Z,101295.31
2018-03-26T18:28:12.026Z,101300.02
2018-03-26T18:30:40.472Z,101303.33
2018-03-26T18:33:09.631Z,101301.74
2018-03-26T18:35:37.986Z,101303.66
2018-03-26T18:38:06.401Z,101302.99
2018-03-26T18:40:35.025Z,101311.01
2018-03-26T18:43:05.632Z,101311.52
2018-03-26T18:45:34.536Z,101312.35
2018-03-26T18:48:03.274Z,101316.59
2018-03-26T18:50:32.195Z,101315.79
2018-03-26T18:53:01.323Z,101320.06
2018-03-26T18:55:30.177Z,101316.37
2018-03-26T18:57:58.563Z,101326.05
2018-03-26T19:00:26.922Z,101324.03
2018-03-26T19:02:55.273Z,101323.64
2018-03-26T19:05:23.996Z,101329.97
2018-03-26T19:07:52.386Z,101332.52
2018-03-26T19:10:20.807Z,101337.58
2018-03-26T19:12:49.841Z,101341.39
2018-03-26T19:15:18.604Z,101344.42
2018-03-26T19:17:47.038Z,101351.15
2018-03-26T19:20:15.454Z,101354.50
2018-03-26T19:22:43.853Z,101351.95
2018-03-26T19:25:12.683Z,101345.67
2018-03-26T19:27:41.075Z,101343.16
2018-03-26T19:30:10.406Z,101349.41
2018-03-26T19:32:38.792Z,101353.19
2018-03-26T19:35:08.060Z,101349.03
2018-03-26T19:37:37.633Z,101356.15
2018-03-26T19:40:07.583Z,101355.76
2018-03-26T19:42:36.617Z,101358.27
2018-03-26T19:45:05.329Z,101362.02
2018-03-26T19:47:33.973Z,101361.59
2018-03-26T19:50:02.336Z,101366.20
2018-03-26T19:52:30.785Z,101367.46
2018-03-26T19:54:59.574Z,101376.26
2018-03-26T19:57:29.676Z,101375.03
2018-03-26T19:59:58.070Z,101379.67
2018-03-26T20:02:27.068Z,101378.38
2018-03-26T20:04:55.417Z,101384.70
2018-03-26T20:07:23.773Z,101380.95
2018-03-26T20:09:52.871Z,101383.95
2018-03-26T20:12:21.269Z,101383.52
2018-03-26T20:14:50.482Z,101380.17
2018-03-26T20:17:19.095Z,101383.50
2018-03-26T20:19:47.782Z,101384.30
2018-03-26T20:22:16.133Z,101382.63
2018-03-26T20:24:44.505Z,101391.84
2018-03-26T20:27:13.224Z,101388.49
2018-03-26T20:29:41.895Z,101390.59
2018-03-26T20:32:10.575Z,101388.49
2018-03-26T20:34:39.654Z,101397.31
2018-03-26T20:37:08.059Z,101399.02
2018-03-26T20:39:36.402Z,101404.94
2018-03-26T20:42:05.116Z,101410.41
2018-03-26T20:44:34.212Z,101409.59
2018-03-26T20:47:02.603Z,101412.97
2018-03-26T20:49:32.316Z,101411.27
2018-03-26T20:52:02.598Z,101415.04
2018-03-26T20:54:30.980Z,101411.29
2018-03-26T20:56:59.841Z,101413.43
2018-03-26T20:59:28.486Z,101421.80
2018-03-26T21:01:57.084Z,101420.13
2018-03-26T21:04:25.757Z,101418.42
2018-03-26T21:06:54.137Z,101423.02
2018-03-26T21:09:22.548Z,101418.80
2018-03-26T21:11:51.831Z,101422.98
2018-03-26T21:14:22.774Z,101424.25
2018-03-26T21:16:54.642Z,101423.39
2018-03-26T21:19:23.818Z,101421.31
2018-03-26T21:21:54.075Z,101425.16
2018-03-26T21:24:22.642Z,101426.02
2018-03-26T21:26:51.650Z,101436.06
2018-03-26T21:29:20.395Z,101428.12
2018-03-26T21:31:49.617Z,101430.22
2018-03-26T21:34:17.958Z,101429.84
2018-03-26T21:36:49.614Z,101426.09
2018-03-26T21:39:18.229Z,101434.44
2018-03-26T21:41:47.049Z,101432.78
2018-03-26T21:44:15.501Z,101428.62
2018-03-26T21:46:44.450Z,101441.22
2018-03-26T21:49:13.627Z,101434.95
2018-03-26T21:51:42.049Z,101432.88
2018-03-26T21:54:12.869Z,101437.89
2018-03-26T21:56:41.719Z,101436.25
2018-03-26T21:59:10.613Z,101438.37
2018-03-26T22:01:40.000Z,101429.56
2018-03-26T22:04:09.573Z,101436.71
2018-03-26T22:06:39.813Z,101433.79
2018-03-26T22:09:08.961Z,101427.13
2018-03-26T22:11:38.157Z,101425.47
2018-03-26T22:14:06.744Z,101427.16
2018-03-26T22:16:36.230Z,101424.64
2018-03-26T22:19:05.063Z,101425.47
2018-03-26T22:21:35.382Z,101430.53
2018-03-26T22:24:04.864Z,101433.48
2018-03-26T22:26:33.575Z,101445.19
2018-03-26T22:29:01.937Z,101446.84
2018-03-26T22:31:31.032Z,101451.45
2018-03-26T22:34:00.843Z,101455.66
2018-03-26T22:36:29.224Z,101452.29
2018-03-26T22:38:57.645Z,101457.29
2018-03-26T22:41:26.225Z,101450.63
2018-03-26T22:43:54.790Z,101447.72
2018-03-26T22:46:24.768Z,101451.47
2018-03-26T22:48:53.171Z,101446.89
2018-03-26T22:51:22.180Z,101451.47
2018-03-26T22:53:50.857Z,101447.73
2018-03-26T22:56:19.665Z,101459.00
2018-03-26T23:01:20.894Z,101457.31
2018-03-26T23:03:49.335Z,101451.05
2018-03-26T23:06:18.427Z,101457.73
2018-03-26T23:08:47.065Z,101455.23
2018-03-26T23:11:15.751Z,101453.55
2018-03-26T23:13:44.240Z,101452.72
2018-03-26T23:16:13.355Z,101462.33
2018-03-26T23:18:41.704Z,101461.50
2018-03-26T23:21:10.075Z,101461.09
2018-03-26T23:23:38.924Z,101458.98
2018-03-26T23:26:08.263Z,101458.58
2018-03-26T23:28:37.973Z,101463.61
2018-03-26T23:31:07.271Z,101458.58
2018-03-26T23:33:36.833Z,101454.84
2018-03-26T23:36:06.256Z,101461.13
2018-03-26T23:38:35.142Z,101457.75
2018-03-26T23:41:03.805Z,101457.77
2018-03-26T23:43:33.339Z,101461.52
2018-03-26T23:46:02.006Z,101461.94
2018-03-26T23:48:30.407Z,101458.17
2018-03-26T23:50:59.060Z,101458.59
2018-03-26T23:53:28.527Z,101458.61
2018-03-26T23:55:56.868Z,101465.28
2018-03-26T23:58:25.218Z,101462.38
